Oval Lp No.11 — JL6306 — position and weather

sailwx.info

Track history (hours):
 
Tides and Currents Weather Stations Pressure Air Temp Water Temp Dewpoint Dewpoint Depression Visibility Wind Speed Wind Dir Waves Ship Positions

Oval Lp No.11

Last reported at 2016-May-03 04:16 UTC. Time now 2016-May-03 06:53 UTC.
Position N 34°21' E 135°10'.

Length 67 m; draft 3.6 m.

Type: Ship (hazmat cat A). MMSI: 431500366.

Date/timePositionNaut miles runAvg speedWind from/ knotsBaromVisibWave heightAir tempDewpointWater temp
2016-May-03 04:16N 34°21' E 135°10'1 1.3
2016-May-03 03:33N 34°22' E 135°10'1110.9
2016-May-03 02:31N 34°32' E 135°18'7 7.2
2016-May-03 01:32N 34°34' E 135°26'0 0.0
2016-May-03 00:26N 34°34' E 135°26'0 0.0
2016-May-02 23:26N 34°34' E 135°26'3 2.2
2016-May-02 22:16N 34°36' E 135°23'0 0.0
2016-May-02 21:22N 34°36' E 135°23'0 0.0
2016-May-02 17:22N 34°36' E 135°23'0 0.0
2016-May-02 16:22N 34°36' E 135°23'0 0.0
2016-May-02 15:28N 34°36' E 135°23'0 0.0
2016-May-02 14:22N 34°36' E 135°23'0 0.0
2016-May-02 13:28N 34°36' E 135°23'0 0.0
2016-May-02 12:22N 34°36' E 135°23'6 7.8
2016-May-02 11:33N 34°32' E 135°17'1212.0
2016-May-02 10:33N 34°23' E 135°07'1111.2
2016-May-02 09:33N 34°14' E 135°00'228 9.0
2016-May-01 08:10N 35°03' E 139°31'8 9.6
2016-May-01 07:17N 35°06' E 139°40'7 9.3
2016-May-01 06:33N 35°11' E 139°45'1110.8
2016-May-01 05:33N 35°22' E 139°42'1110.9
2016-May-01 04:33N 35°30' E 139°51'1111.2
2016-May-01 03:33N 35°33' E 140°04'1 0.6
2016-May-01 02:18N 35°33' E 140°05'0 0.0
2016-May-01 01:30N 35°33' E 140°05'0 0.0
2016-May-01 00:33N 35°33' E 140°05'9 8.8
2016-Apr-30 23:33N 35°29' E 139°55'0 0.1
2016-Apr-30 22:20N 35°29' E 139°55'0 0.0
2016-Apr-30 21:32N 35°29' E 139°55'0 0.0
2016-Apr-30 20:32N 35°29' E 139°55'0 0.0
2016-Apr-30 19:31N 35°29' E 139°55'0 0.0
2016-Apr-30 18:33N 35°29' E 139°55'0 0.0
2016-Apr-30 17:33N 35°29' E 139°55'0 0.0
2016-Apr-30 16:32N 35°29' E 139°55'0 0.0
2016-Apr-30 15:33N 35°29' E 139°55'0 0.0
2016-Apr-30 14:33N 35°29' E 139°55'0 0.0
2016-Apr-30 13:31N 35°29' E 139°55'0 0.1
2016-Apr-30 12:31N 35°29' E 139°55'0 0.0
2016-Apr-30 11:31N 35°29' E 139°55'0 0.0
2016-Apr-30 10:31N 35°29' E 139°55'0 0.0
2016-Apr-30 09:28N 35°29' E 139°55'1 1.4
2016-Apr-30 08:33N 35°29' E 139°53'1211.7
2016-Apr-30 07:34N 35°20' E 139°44'1110.7
2016-Apr-30 06:33N 35°09' E 139°45'24410.1
2016-Apr-29 06:19N 34°03' E 135°00'912.4
2016-Apr-29 05:33N 34°12' E 134°59'1311.6
2016-Apr-29 04:25N 34°25' E 135°05'1112.5
2016-Apr-29 03:33N 34°32' E 135°15'8 7.2
2016-Apr-29 02:25N 34°38' E 135°21'0 0.0
2016-Apr-29 01:31N 34°38' E 135°21'0 0.0
2016-Apr-29 00:31N 34°38' E 135°21'0 0.0
2016-Apr-28 23:25N 34°38' E 135°21'0 0.0
2016-Apr-28 22:13N 34°38' E 135°21'0 0.1
2016-Apr-28 21:31N 34°38' E 135°21'0 0.0
2016-Apr-28 20:25N 34°38' E 135°21'0 0.0
2016-Apr-28 19:31N 34°38' E 135°21'0 0.0
2016-Apr-28 18:31N 34°38' E 135°21'0 0.0
2016-Apr-28 17:31N 34°38' E 135°21'0 0.0
2016-Apr-28 16:19N 34°38' E 135°21'0 0.0
2016-Apr-28 15:31N 34°38' E 135°21'0 0.0
2016-Apr-28 14:25N 34°38' E 135°21'0 0.0
2016-Apr-28 13:25N 34°38' E 135°21'0 0.1
2016-Apr-28 12:31N 34°38' E 135°21'0 0.0
2016-Apr-28 11:25N 34°38' E 135°21'0 0.0
2016-Apr-28 10:31N 34°38' E 135°21'0 0.0
2016-Apr-28 09:25N 34°38' E 135°21'0 0.1
2016-Apr-28 08:31N 34°38' E 135°21'0 0.0
2016-Apr-28 07:31N 34°38' E 135°21'0 0.1
2016-Apr-28 06:19N 34°38' E 135°21'0 0.1
2016-Apr-28 05:32N 34°38' E 135°21'6 5.6
2016-Apr-28 04:30N 34°34' E 135°26'0 0.0
2016-Apr-28 03:30N 34°34' E 135°26'0 0.0
2016-Apr-28 02:12N 34°34' E 135°26'0 0.0
2016-Apr-28 01:33N 34°34' E 135°26'3 2.6
2016-Apr-28 00:30N 34°36' E 135°23'5 5.1
2016-Apr-27 23:33N 34°33' E 135°18'1111.0
2016-Apr-27 22:33N 34°27' E 135°07'1010.2
2016-Apr-27 21:33N 34°18' E 135°00'1010.1
2016-Apr-27 20:33N 34°08' E 135°01'7 0.2
2016-Apr-26 06:22N 34°01' E 134°60'1012.2
2016-Apr-26 05:33N 34°11' E 134°59'1512.0
2016-Apr-26 04:19N 34°25' E 135°05'911.9
2016-Apr-26 03:32N 34°30' E 135°14'1010.6
2016-Apr-26 02:33N 34°36' E 135°24'2 2.1
2016-Apr-26 01:31N 34°34' E 135°26'0 0.0
2016-Apr-26 00:31N 34°34' E 135°26'0 0.0
2016-Apr-25 23:31N 34°34' E 135°26'2 2.5
2016-Apr-25 22:33N 34°36' E 135°24'1 0.9
2016-Apr-25 21:32N 34°36' E 135°23'0 0.0
2016-Apr-25 20:32N 34°36' E 135°23'0 0.0
2016-Apr-25 19:08N 34°36' E 135°23'0 0.0
2016-Apr-25 18:32N 34°36' E 135°23'0 0.0
2016-Apr-25 17:26N 34°36' E 135°23'0 0.0
2016-Apr-25 15:26N 34°36' E 135°23'0 0.0
2016-Apr-25 14:14N 34°36' E 135°23'0 0.0
2016-Apr-25 13:32N 34°36' E 135°23'0 0.0
2016-Apr-25 12:32N 34°36' E 135°23'0 0.3
2016-Apr-25 11:33N 34°36' E 135°23'1111.2
2016-Apr-25 10:33N 34°28' E 135°12'1211.6
2016-Apr-25 09:31N 34°20' E 135°02'9 9.8
2016-Apr-25 08:33N 34°11' E 135°00'239 9.4
2016-Apr-24 07:10N 35°07' E 139°42'711.5
2016-Apr-24 06:33N 35°14' E 139°46'1110.6
2016-Apr-24 05:33N 35°24' E 139°42'1111.2
2016-Apr-24 04:33N 35°30' E 139°53'10 9.8
2016-Apr-24 03:33N 35°33' E 140°05'0 0.0
2016-Apr-24 02:22N 35°33' E 140°05'0 0.0
2016-Apr-24 01:28N 35°33' E 140°05'0 0.0
2016-Apr-24 00:28N 35°33' E 140°05'2 1.9
2016-Apr-23 23:33N 35°33' E 140°03'8 8.1
2016-Apr-23 22:33N 35°29' E 139°55'0 0.0
2016-Apr-23 21:33N 35°29' E 139°55'0 0.1
2016-Apr-23 20:33N 35°29' E 139°55'0 0.1
2016-Apr-23 19:33N 35°29' E 139°55'2 2.4
2016-Apr-23 18:33N 35°29' E 139°52'1211.9
2016-Apr-23 17:33N 35°19' E 139°44'1111.3
2016-Apr-23 16:33N 35°07' E 139°45'  
Track history (hours):
 
Tides and Currents Weather Stations Pressure Air Temp Water Temp Dewpoint Dewpoint Depression Visibility Wind Speed Wind Dir Waves Ship Positions

Oval Lp No.11

Last reported at 2016-May-03 04:16 UTC. Time now 2016-May-03 06:53 UTC.
Position N 34°21' E 135°10'.

Length 67 m; draft 3.6 m.

Type: Ship (hazmat cat A). MMSI: 431500366.

Date/timePositionNaut miles runAvg speedWind from/ knotsBaromVisibWave heightAir tempDewpointWater temp
2016-May-03 04:16N 34°21' E 135°10'1 1.3
2016-May-03 03:33N 34°22' E 135°10'1110.9
2016-May-03 02:31N 34°32' E 135°18'7 7.2
2016-May-03 01:32N 34°34' E 135°26'0 0.0
2016-May-03 00:26N 34°34' E 135°26'0 0.0
2016-May-02 23:26N 34°34' E 135°26'3 2.2
2016-May-02 22:16N 34°36' E 135°23'0 0.0
2016-May-02 21:22N 34°36' E 135°23'0 0.0
2016-May-02 17:22N 34°36' E 135°23'0 0.0
2016-May-02 16:22N 34°36' E 135°23'0 0.0
2016-May-02 15:28N 34°36' E 135°23'0 0.0
2016-May-02 14:22N 34°36' E 135°23'0 0.0
2016-May-02 13:28N 34°36' E 135°23'0 0.0
2016-May-02 12:22N 34°36' E 135°23'6 7.8
2016-May-02 11:33N 34°32' E 135°17'1212.0
2016-May-02 10:33N 34°23' E 135°07'1111.2
2016-May-02 09:33N 34°14' E 135°00'228 9.0
2016-May-01 08:10N 35°03' E 139°31'8 9.6
2016-May-01 07:17N 35°06' E 139°40'7 9.3
2016-May-01 06:33N 35°11' E 139°45'1110.8
2016-May-01 05:33N 35°22' E 139°42'1110.9
2016-May-01 04:33N 35°30' E 139°51'1111.2
2016-May-01 03:33N 35°33' E 140°04'1 0.6
2016-May-01 02:18N 35°33' E 140°05'0 0.0
2016-May-01 01:30N 35°33' E 140°05'0 0.0
2016-May-01 00:33N 35°33' E 140°05'9 8.8
2016-Apr-30 23:33N 35°29' E 139°55'0 0.1
2016-Apr-30 22:20N 35°29' E 139°55'0 0.0
2016-Apr-30 21:32N 35°29' E 139°55'0 0.0
2016-Apr-30 20:32N 35°29' E 139°55'0 0.0
2016-Apr-30 19:31N 35°29' E 139°55'0 0.0
2016-Apr-30 18:33N 35°29' E 139°55'0 0.0
2016-Apr-30 17:33N 35°29' E 139°55'0 0.0
2016-Apr-30 16:32N 35°29' E 139°55'0 0.0
2016-Apr-30 15:33N 35°29' E 139°55'0 0.0
2016-Apr-30 14:33N 35°29' E 139°55'0 0.0
2016-Apr-30 13:31N 35°29' E 139°55'0 0.1
2016-Apr-30 12:31N 35°29' E 139°55'0 0.0
2016-Apr-30 11:31N 35°29' E 139°55'0 0.0
2016-Apr-30 10:31N 35°29' E 139°55'0 0.0
2016-Apr-30 09:28N 35°29' E 139°55'1 1.4
2016-Apr-30 08:33N 35°29' E 139°53'1211.7
2016-Apr-30 07:34N 35°20' E 139°44'1110.7
2016-Apr-30 06:33N 35°09' E 139°45'24410.1
2016-Apr-29 06:19N 34°03' E 135°00'912.4
2016-Apr-29 05:33N 34°12' E 134°59'1311.6
2016-Apr-29 04:25N 34°25' E 135°05'1112.5
2016-Apr-29 03:33N 34°32' E 135°15'8 7.2
2016-Apr-29 02:25N 34°38' E 135°21'0 0.0
2016-Apr-29 01:31N 34°38' E 135°21'0 0.0
2016-Apr-29 00:31N 34°38' E 135°21'0 0.0
2016-Apr-28 23:25N 34°38' E 135°21'0 0.0
2016-Apr-28 22:13N 34°38' E 135°21'0 0.1
2016-Apr-28 21:31N 34°38' E 135°21'0 0.0
2016-Apr-28 20:25N 34°38' E 135°21'0 0.0
2016-Apr-28 19:31N 34°38' E 135°21'0 0.0
2016-Apr-28 18:31N 34°38' E 135°21'0 0.0
2016-Apr-28 17:31N 34°38' E 135°21'0 0.0
2016-Apr-28 16:19N 34°38' E 135°21'0 0.0
2016-Apr-28 15:31N 34°38' E 135°21'0 0.0
2016-Apr-28 14:25N 34°38' E 135°21'0 0.0
2016-Apr-28 13:25N 34°38' E 135°21'0 0.1
2016-Apr-28 12:31N 34°38' E 135°21'0 0.0
2016-Apr-28 11:25N 34°38' E 135°21'0 0.0
2016-Apr-28 10:31N 34°38' E 135°21'0 0.0
2016-Apr-28 09:25N 34°38' E 135°21'0 0.1
2016-Apr-28 08:31N 34°38' E 135°21'0 0.0
2016-Apr-28 07:31N 34°38' E 135°21'0 0.1
2016-Apr-28 06:19N 34°38' E 135°21'0 0.1
2016-Apr-28 05:32N 34°38' E 135°21'6 5.6
2016-Apr-28 04:30N 34°34' E 135°26'0 0.0
2016-Apr-28 03:30N 34°34' E 135°26'0 0.0
2016-Apr-28 02:12N 34°34' E 135°26'0 0.0
2016-Apr-28 01:33N 34°34' E 135°26'3 2.6
2016-Apr-28 00:30N 34°36' E 135°23'5 5.1
2016-Apr-27 23:33N 34°33' E 135°18'1111.0
2016-Apr-27 22:33N 34°27' E 135°07'1010.2
2016-Apr-27 21:33N 34°18' E 135°00'1010.1
2016-Apr-27 20:33N 34°08' E 135°01'7 0.2
2016-Apr-26 06:22N 34°01' E 134°60'1012.2
2016-Apr-26 05:33N 34°11' E 134°59'1512.0
2016-Apr-26 04:19N 34°25' E 135°05'911.9
2016-Apr-26 03:32N 34°30' E 135°14'1010.6
2016-Apr-26 02:33N 34°36' E 135°24'2 2.1
2016-Apr-26 01:31N 34°34' E 135°26'0 0.0
2016-Apr-26 00:31N 34°34' E 135°26'0 0.0
2016-Apr-25 23:31N 34°34' E 135°26'2 2.5
2016-Apr-25 22:33N 34°36' E 135°24'1 0.9
2016-Apr-25 21:32N 34°36' E 135°23'0 0.0
2016-Apr-25 20:32N 34°36' E 135°23'0 0.0
2016-Apr-25 19:08N 34°36' E 135°23'0 0.0
2016-Apr-25 18:32N 34°36' E 135°23'0 0.0
2016-Apr-25 17:26N 34°36' E 135°23'0 0.0
2016-Apr-25 15:26N 34°36' E 135°23'0 0.0
2016-Apr-25 14:14N 34°36' E 135°23'0 0.0
2016-Apr-25 13:32N 34°36' E 135°23'0 0.0
2016-Apr-25 12:32N 34°36' E 135°23'0 0.3
2016-Apr-25 11:33N 34°36' E 135°23'1111.2
2016-Apr-25 10:33N 34°28' E 135°12'1211.6
2016-Apr-25 09:31N 34°20' E 135°02'9 9.8
2016-Apr-25 08:33N 34°11' E 135°00'239 9.4
2016-Apr-24 07:10N 35°07' E 139°42'711.5
2016-Apr-24 06:33N 35°14' E 139°46'1110.6
2016-Apr-24 05:33N 35°24' E 139°42'1111.2
2016-Apr-24 04:33N 35°30' E 139°53'10 9.8
2016-Apr-24 03:33N 35°33' E 140°05'0 0.0
2016-Apr-24 02:22N 35°33' E 140°05'0 0.0
2016-Apr-24 01:28N 35°33' E 140°05'0 0.0
2016-Apr-24 00:28N 35°33' E 140°05'2 1.9
2016-Apr-23 23:33N 35°33' E 140°03'8 8.1
2016-Apr-23 22:33N 35°29' E 139°55'0 0.0
2016-Apr-23 21:33N 35°29' E 139°55'0 0.1
2016-Apr-23 20:33N 35°29' E 139°55'0 0.1
2016-Apr-23 19:33N 35°29' E 139°55'2 2.4
2016-Apr-23 18:33N 35°29' E 139°52'1211.9
2016-Apr-23 17:33N 35°19' E 139°44'1111.3
2016-Apr-23 16:33N 35°07' E 139°45'  

Dump ship's entire track history